createdAt,value
2023-02-28T00:01:15.470Z,1.00
2023-02-28T00:03:56.990Z,1.60
2023-02-28T00:06:56.264Z,2.07
2023-02-28T00:09:52.435Z,1.40
2023-02-28T00:12:27.171Z,4.53
2023-02-28T00:15:07.812Z,2.07
2023-02-28T00:17:51.175Z,1.77
2023-02-28T00:23:49.369Z,3.93
2023-02-28T00:26:26.883Z,4.57
2023-02-28T00:29:02.547Z,1.53
2023-02-28T00:31:35.270Z,1.57
2023-02-28T00:34:16.060Z,1.70
2023-02-28T00:37:08.469Z,1.47
2023-02-28T00:39:53.405Z,1.83
2023-02-28T00:42:21.856Z,1.50
2023-02-28T00:44:57.574Z,1.20
2023-02-28T00:47:31.781Z,5.50
2023-02-28T00:50:15.366Z,2.03
2023-02-28T00:53:03.634Z,1.83
2023-02-28T00:55:41.999Z,5.13
2023-02-28T00:58:16.740Z,3.70
2023-02-28T01:00:50.481Z,2.53
2023-02-28T01:03:34.676Z,2.40
2023-02-28T01:06:22.626Z,2.13
2023-02-28T01:09:07.631Z,2.67
2023-02-28T01:11:46.548Z,5.23
2023-02-28T01:14:26.823Z,3.40
2023-02-28T01:17:12.269Z,2.37
2023-02-28T01:19:44.546Z,1.17
2023-02-28T01:22:20.019Z,2.13
2023-02-28T01:25:35.477Z,1.60
2023-02-28T01:28:18.794Z,2.10
2023-02-28T01:31:11.792Z,1.73
2023-02-28T01:37:01.344Z,4.50
2023-02-28T01:39:34.545Z,1.20
2023-02-28T01:42:41.209Z,1.90
2023-02-28T01:45:57.337Z,1.10
2023-02-28T01:52:10.400Z,1.20
2023-02-28T01:55:06.197Z,0.90
2023-02-28T01:58:03.075Z,1.00
2023-02-28T02:00:52.491Z,1.17
2023-02-28T02:03:38.134Z,1.97
2023-02-28T02:06:24.538Z,5.30
2023-02-28T02:08:59.729Z,1.50
2023-02-28T02:14:56.274Z,3.57
2023-02-28T02:17:59.792Z,1.80
2023-02-28T02:20:55.955Z,1.13
2023-02-28T02:23:41.860Z,1.30
2023-02-28T02:26:43.195Z,3.10
2023-02-28T02:29:51.049Z,17.83
2023-02-28T02:32:43.721Z,1.53
2023-02-28T02:35:37.672Z,1.87
2023-02-28T02:38:34.946Z,2.77
2023-02-28T02:41:19.065Z,2.00
2023-02-28T02:44:08.224Z,1.73
2023-02-28T02:46:56.643Z,2.77
2023-02-28T02:49:39.123Z,1.00
2023-02-28T02:52:15.501Z,1.27
2023-02-28T02:58:21.863Z,0.87
2023-02-28T03:01:17.119Z,1.27
2023-02-28T03:06:46.506Z,0.90
2023-02-28T03:09:29.046Z,1.07
2023-02-28T03:12:15.232Z,1.23
2023-02-28T03:15:12.666Z,1.87
2023-02-28T03:18:01.927Z,1.53
2023-02-28T03:20:42.909Z,2.00
2023-02-28T03:23:29.091Z,1.10
2023-02-28T03:26:19.854Z,1.40
2023-02-28T03:29:29.844Z,1.00
2023-02-28T03:32:27.917Z,1.70
2023-02-28T03:35:16.652Z,1.20
2023-02-28T03:38:04.113Z,9.73
2023-02-28T03:40:48.232Z,2.10
2023-02-28T03:43:29.176Z,1.70
2023-02-28T03:46:05.434Z,2.37
2023-02-28T03:48:54.927Z,1.20
2023-02-28T03:51:44.292Z,1.00
2023-02-28T03:57:43.909Z,3.60
2023-02-28T04:00:33.768Z,4.43
2023-02-28T04:03:02.430Z,1.67
2023-02-28T04:05:50.952Z,3.57
2023-02-28T04:08:22.435Z,2.10
2023-02-28T04:11:20.017Z,0.80
2023-02-28T04:13:59.514Z,1.10
2023-02-28T04:16:49.212Z,0.93
2023-02-28T04:19:41.087Z,1.00
2023-02-28T04:22:22.631Z,1.87
2023-02-28T04:24:54.699Z,0.80
2023-02-28T04:30:13.890Z,0.90
2023-02-28T04:32:52.532Z,0.90
2023-02-28T04:35:38.963Z,0.90
2023-02-28T04:38:39.677Z,1.03
2023-02-28T04:41:33.984Z,1.00
2023-02-28T04:44:04.478Z,0.93
2023-02-28T04:46:37.626Z,1.60
2023-02-28T04:49:11.730Z,0.80
2023-02-28T04:51:55.794Z,1.30
2023-02-28T04:54:32.769Z,1.30
2023-02-28T04:57:05.305Z,1.00
2023-02-28T05:00:05.943Z,0.80
2023-02-28T05:03:02.754Z,1.00
2023-02-28T05:05:54.495Z,1.10
2023-02-28T05:08:22.990Z,2.07
2023-02-28T05:10:54.365Z,0.93
2023-02-28T05:13:29.842Z,1.30
2023-02-28T05:16:08.238Z,0.80
2023-02-28T05:18:45.578Z,0.90
2023-02-28T05:21:30.607Z,0.80
2023-02-28T05:24:15.753Z,2.00
2023-02-28T05:26:47.819Z,1.00
2023-02-28T05:29:26.590Z,0.80
2023-02-28T05:32:10.275Z,0.93
2023-02-28T05:34:41.587Z,1.23
2023-02-28T05:37:39.741Z,1.13
2023-02-28T05:40:16.060Z,0.93
2023-02-28T05:42:57.094Z,0.90
2023-02-28T05:45:34.811Z,0.80
2023-02-28T05:48:27.046Z,1.10
2023-02-28T05:51:08.637Z,0.80
2023-02-28T05:53:43.794Z,0.80
2023-02-28T05:56:18.331Z,0.80
2023-02-28T05:58:53.642Z,0.80
2023-02-28T06:01:34.651Z,0.80
2023-02-28T06:07:13.007Z,2.07
2023-02-28T06:09:52.634Z,5.60
2023-02-28T06:12:33.051Z,4.37
2023-02-28T06:15:02.832Z,5.23
2023-02-28T06:17:40.437Z,8.17
2023-02-28T06:20:24.117Z,3.13
2023-02-28T06:23:13.833Z,4.97
2023-02-28T06:26:03.765Z,1.00
2023-02-28T06:28:43.274Z,2.53
2023-02-28T06:31:19.836Z,2.17
2023-02-28T06:33:48.806Z,2.23
2023-02-28T06:36:17.846Z,5.10
2023-02-28T06:38:46.400Z,1.77
2023-02-28T06:41:16.343Z,7.37
2023-02-28T06:43:44.933Z,5.03
2023-02-28T06:46:24.330Z,0.80
2023-02-28T06:48:55.021Z,3.53
2023-02-28T06:51:28.196Z,2.47
2023-02-28T06:53:57.623Z,1.27
2023-02-28T06:56:31.889Z,1.13
2023-02-28T06:59:03.908Z,1.73
2023-02-28T07:01:36.794Z,4.27
2023-02-28T07:04:08.105Z,2.03
2023-02-28T07:06:36.919Z,3.43
2023-02-28T07:09:06.161Z,1.70
2023-02-28T07:11:36.189Z,6.80
2023-02-28T07:14:25.712Z,4.67
2023-02-28T07:17:15.055Z,3.03
2023-02-28T07:19:47.209Z,2.23
2023-02-28T07:22:16.088Z,2.10
2023-02-28T07:27:53.625Z,13.37
2023-02-28T07:30:22.386Z,5.70
2023-02-28T07:32:52.637Z,13.97
2023-02-28T07:35:21.207Z,17.87
2023-02-28T07:37:52.606Z,17.33
2023-02-28T07:40:23.852Z,14.40
2023-02-28T07:42:55.544Z,21.50
2023-02-28T07:45:24.262Z,21.47
2023-02-28T07:47:52.893Z,14.40
2023-02-28T07:50:25.128Z,20.37
2023-02-28T07:52:54.633Z,19.43
2023-02-28T07:55:25.370Z,17.07
2023-02-28T07:57:58.303Z,16.63
2023-02-28T08:00:30.192Z,24.90
2023-02-28T08:02:59.073Z,24.77
2023-02-28T08:05:27.574Z,10.83
2023-02-28T08:07:55.957Z,22.83
2023-02-28T08:10:24.891Z,20.93
2023-02-28T08:12:54.764Z,22.40
2023-02-28T08:15:23.178Z,5.20
2023-02-28T08:17:51.633Z,7.03
2023-02-28T08:20:22.982Z,2.97
2023-02-28T08:22:51.734Z,8.87
2023-02-28T08:25:20.356Z,17.93
2023-02-28T08:27:48.860Z,20.70
2023-02-28T08:30:19.526Z,20.47
2023-02-28T08:32:47.940Z,17.70
2023-02-28T08:35:16.438Z,22.77
2023-02-28T08:37:45.596Z,16.17
2023-02-28T08:40:19.174Z,19.50
2023-02-28T08:42:51.394Z,21.47
2023-02-28T08:45:22.290Z,18.03
2023-02-28T08:47:55.370Z,18.97
2023-02-28T08:50:23.947Z,13.37
2023-02-28T08:52:53.661Z,5.70
2023-02-28T08:55:22.225Z,14.10
2023-02-28T08:57:50.820Z,17.00
2023-02-28T09:00:21.352Z,8.17
2023-02-28T09:02:49.912Z,17.17
2023-02-28T09:05:18.343Z,22.57
2023-02-28T09:07:46.829Z,11.37
2023-02-28T09:10:15.441Z,18.13
2023-02-28T09:12:47.023Z,23.50
2023-02-28T09:15:15.714Z,19.77
2023-02-28T09:17:46.867Z,20.47
2023-02-28T09:20:16.703Z,18.93
2023-02-28T09:22:45.424Z,15.97
2023-02-28T09:25:13.998Z,17.63
2023-02-28T09:27:46.575Z,22.17
2023-02-28T09:30:15.435Z,12.87
2023-02-28T09:32:53.110Z,5.80
2023-02-28T09:35:22.066Z,6.33
2023-02-28T09:37:50.869Z,9.70
2023-02-28T09:40:19.760Z,2.80
2023-02-28T09:42:49.754Z,7.50
2023-02-28T09:45:22.732Z,2.80
2023-02-28T09:47:53.459Z,10.17
2023-02-28T09:50:27.742Z,4.13
2023-02-28T09:52:57.085Z,5.43
2023-02-28T09:55:35.304Z,3.57
2023-02-28T09:58:18.177Z,5.80
2023-02-28T10:00:46.983Z,6.00
2023-02-28T10:03:26.020Z,10.40
2023-02-28T10:05:55.608Z,3.37
2023-02-28T10:08:27.029Z,2.30
2023-02-28T10:10:57.556Z,7.07
2023-02-28T10:13:27.991Z,6.73
2023-02-28T10:15:58.372Z,6.43
2023-02-28T10:18:30.661Z,4.13
2023-02-28T10:20:59.406Z,7.33
2023-02-28T10:23:29.958Z,3.33
2023-02-28T10:26:01.505Z,1.80
2023-02-28T10:28:31.876Z,3.73
2023-02-28T10:31:01.267Z,1.20
2023-02-28T10:33:32.990Z,2.40
2023-02-28T10:36:05.331Z,3.67
2023-02-28T10:38:35.993Z,3.10
2023-02-28T10:41:08.076Z,2.43
2023-02-28T10:43:36.668Z,3.87
2023-02-28T10:46:06.827Z,1.57
2023-02-28T10:48:38.925Z,1.83
2023-02-28T10:51:08.421Z,3.73
2023-02-28T10:53:57.551Z,3.73
2023-02-28T10:56:28.202Z,2.90
2023-02-28T10:58:57.960Z,4.27
2023-02-28T11:01:27.800Z,4.63
2023-02-28T11:03:58.405Z,1.37
2023-02-28T11:06:28.968Z,4.07
2023-02-28T11:08:58.496Z,2.93
2023-02-28T11:11:31.360Z,4.30
2023-02-28T11:14:01.304Z,2.80
2023-02-28T11:16:39.666Z,2.83
2023-02-28T11:19:19.568Z,7.07
2023-02-28T11:21:50.654Z,5.57
2023-02-28T11:24:24.521Z,3.90
2023-02-28T11:26:53.000Z,3.23
2023-02-28T11:29:22.944Z,3.47
2023-02-28T11:32:04.911Z,1.63
2023-02-28T11:34:34.945Z,6.00
2023-02-28T11:37:05.970Z,2.80
2023-02-28T11:39:35.041Z,1.53
2023-02-28T11:42:08.165Z,3.70
2023-02-28T11:44:43.486Z,3.20
2023-02-28T11:47:15.354Z,3.67
2023-02-28T11:50:00.963Z,6.90
2023-02-28T11:52:37.050Z,3.23
2023-02-28T11:55:12.703Z,4.07
2023-02-28T11:57:50.541Z,1.20
2023-02-28T12:00:28.157Z,2.50
2023-02-28T12:03:02.994Z,2.07
2023-02-28T12:05:34.066Z,2.53
2023-02-28T12:08:09.287Z,1.67
2023-02-28T12:10:40.414Z,1.63
2023-02-28T12:13:15.705Z,1.63
2023-02-28T12:15:52.963Z,2.10
2023-02-28T12:18:27.885Z,1.80
2023-02-28T12:21:00.756Z,1.80
2023-02-28T12:23:45.117Z,1.83
2023-02-28T12:26:16.464Z,2.67
2023-02-28T12:28:47.429Z,1.80
2023-02-28T12:31:20.344Z,1.13
2023-02-28T12:33:50.318Z,1.90
2023-02-28T12:36:22.910Z,1.23
2023-02-28T12:38:58.341Z,2.00
2023-02-28T12:41:30.025Z,1.80
2023-02-28T12:44:00.933Z,1.30
2023-02-28T12:46:32.309Z,1.17
2023-02-28T12:49:01.988Z,1.37
2023-02-28T12:51:31.856Z,1.20
2023-02-28T12:54:06.024Z,1.80
2023-02-28T12:56:39.904Z,1.83
2023-02-28T12:59:15.040Z,1.03
2023-02-28T13:01:55.402Z,1.53
2023-02-28T13:04:56.913Z,1.20
2023-02-28T13:07:36.987Z,1.30
2023-02-28T13:10:08.693Z,1.10
2023-02-28T13:12:37.777Z,1.80
2023-02-28T13:15:13.241Z,1.10
2023-02-28T13:17:42.644Z,1.97
2023-02-28T13:20:18.223Z,1.53
2023-02-28T13:22:47.374Z,1.87
2023-02-28T13:25:34.178Z,1.50
2023-02-28T13:28:05.385Z,1.47
2023-02-28T13:30:52.491Z,1.40
2023-02-28T13:33:24.283Z,1.97
2023-02-28T13:36:03.248Z,1.73
2023-02-28T13:38:36.920Z,1.73
2023-02-28T13:41:30.073Z,1.20
2023-02-28T13:44:12.705Z,1.53
2023-02-28T13:46:56.773Z,1.70
2023-02-28T13:49:29.084Z,1.13
2023-02-28T13:52:03.941Z,2.57
2023-02-28T13:54:42.461Z,2.43
2023-02-28T13:57:17.360Z,1.63
2023-02-28T13:59:50.693Z,2.23
2023-02-28T14:02:36.683Z,1.70
2023-02-28T14:05:08.685Z,1.73
2023-02-28T14:07:50.008Z,1.00
2023-02-28T14:10:26.629Z,1.97
2023-02-28T14:13:02.758Z,5.07
2023-02-28T14:15:49.351Z,1.87
2023-02-28T14:18:23.367Z,2.33
2023-02-28T14:20:54.998Z,2.00
2023-02-28T14:23:33.602Z,2.03
2023-02-28T14:26:07.906Z,2.03
2023-02-28T14:28:44.063Z,1.93
2023-02-28T14:31:13.663Z,2.33
2023-02-28T14:33:48.819Z,2.43
2023-02-28T14:36:20.295Z,1.53
2023-02-28T14:38:51.723Z,2.43
2023-02-28T14:41:25.022Z,3.03
2023-02-28T14:43:54.980Z,3.40
2023-02-28T14:46:26.959Z,2.70
2023-02-28T14:48:56.824Z,2.23
2023-02-28T14:51:26.107Z,2.27
2023-02-28T14:53:56.968Z,1.93
2023-02-28T14:56:27.001Z,2.17
2023-02-28T14:58:57.489Z,1.73
2023-02-28T15:01:26.691Z,5.57
2023-02-28T15:04:05.192Z,2.73
2023-02-28T15:06:34.117Z,2.40
2023-02-28T15:09:10.225Z,1.37
2023-02-28T15:11:39.329Z,2.07
2023-02-28T15:14:07.742Z,2.20
2023-02-28T15:16:39.853Z,2.77
2023-02-28T15:19:11.149Z,2.67
2023-02-28T15:21:41.042Z,1.77
2023-02-28T15:24:10.870Z,2.27
2023-02-28T15:26:41.776Z,1.80
2023-02-28T15:29:11.178Z,2.37
2023-02-28T15:31:56.570Z,1.27
2023-02-28T15:34:36.989Z,1.77
2023-02-28T15:37:09.908Z,4.20
2023-02-28T15:39:44.345Z,3.10
2023-02-28T15:42:13.216Z,2.70
2023-02-28T15:44:41.606Z,2.07
2023-02-28T15:47:17.659Z,2.47
2023-02-28T15:49:50.815Z,1.90
2023-02-28T15:52:20.519Z,2.80
2023-02-28T15:54:49.510Z,2.80
2023-02-28T15:57:19.297Z,2.80
2023-02-28T15:59:52.202Z,2.13
2023-02-28T16:02:22.040Z,2.10
2023-02-28T16:05:02.915Z,1.73
2023-02-28T16:07:31.476Z,4.27
2023-02-28T16:09:59.970Z,1.63
2023-02-28T16:12:32.397Z,2.03
2023-02-28T16:15:03.508Z,1.97
2023-02-28T16:17:32.822Z,2.50
2023-02-28T16:20:04.207Z,1.97
2023-02-28T16:22:32.607Z,2.47
2023-02-28T16:25:01.114Z,1.93
2023-02-28T16:27:34.243Z,2.00
2023-02-28T16:30:03.681Z,2.23
2023-02-28T16:32:32.271Z,1.83
2023-02-28T16:35:02.111Z,2.47
2023-02-28T16:37:33.634Z,2.33
2023-02-28T16:40:05.716Z,2.87
2023-02-28T16:42:34.503Z,2.00
2023-02-28T16:45:04.232Z,1.87
2023-02-28T16:47:33.858Z,2.73
2023-02-28T16:50:13.214Z,2.30
2023-02-28T16:52:41.641Z,1.90
2023-02-28T16:55:10.419Z,2.30
2023-02-28T16:57:38.732Z,2.27
2023-02-28T17:00:09.980Z,3.33
2023-02-28T17:02:41.223Z,2.17
2023-02-28T17:05:13.818Z,7.37
2023-02-28T17:07:42.355Z,2.03
2023-02-28T17:10:15.765Z,1.93
2023-02-28T17:12:44.086Z,0.90
2023-02-28T17:15:13.395Z,1.90
2023-02-28T17:17:42.165Z,10.87
2023-02-28T17:20:17.417Z,1.07
2023-02-28T17:22:45.790Z,1.30
2023-02-28T17:25:14.176Z,3.40
2023-02-28T17:27:45.732Z,1.77
2023-02-28T17:30:18.248Z,1.70
2023-02-28T17:32:46.711Z,2.47
2023-02-28T17:35:16.801Z,1.87
2023-02-28T17:37:48.684Z,5.20
2023-02-28T17:40:17.980Z,1.40
2023-02-28T17:42:46.931Z,1.97
2023-02-28T17:45:15.586Z,1.90
2023-02-28T17:47:45.984Z,2.03
2023-02-28T17:50:17.276Z,3.50
2023-02-28T17:52:47.246Z,3.03
2023-02-28T17:55:15.891Z,6.40
2023-02-28T17:57:44.268Z,5.80
2023-02-28T18:00:14.505Z,2.37
2023-02-28T18:02:42.936Z,2.40
2023-02-28T18:05:11.702Z,2.30
2023-02-28T18:07:41.984Z,1.67
2023-02-28T18:10:16.135Z,1.60
2023-02-28T18:12:45.020Z,1.57
2023-02-28T18:15:13.435Z,1.57
2023-02-28T18:17:41.778Z,2.40
2023-02-28T18:20:11.661Z,1.57
2023-02-28T18:22:42.172Z,2.57
2023-02-28T18:25:14.662Z,2.07
2023-02-28T18:27:54.100Z,1.70
2023-02-28T18:30:22.886Z,1.47
2023-02-28T18:32:51.312Z,1.97
2023-02-28T18:35:34.840Z,2.03
2023-02-28T18:38:06.261Z,3.10
2023-02-28T18:40:34.724Z,2.30
2023-02-28T18:43:03.274Z,3.53
2023-02-28T18:45:32.214Z,1.10
2023-02-28T18:48:00.608Z,1.40
2023-02-28T18:50:29.629Z,1.40
2023-02-28T18:52:59.230Z,1.57
2023-02-28T18:55:29.087Z,5.63
2023-02-28T18:57:57.537Z,3.27
2023-02-28T19:00:26.103Z,5.03
2023-02-28T19:02:54.798Z,1.33
2023-02-28T19:05:23.223Z,1.83
2023-02-28T19:07:51.782Z,2.23
2023-02-28T19:10:20.358Z,1.33
2023-02-28T19:12:50.026Z,3.60
2023-02-28T19:15:18.553Z,4.03
2023-02-28T19:17:47.194Z,2.97
2023-02-28T19:20:15.671Z,7.20
2023-02-28T19:22:44.563Z,4.07
2023-02-28T19:25:13.140Z,4.27
2023-02-28T19:27:41.490Z,1.53
2023-02-28T19:30:12.703Z,1.87
2023-02-28T19:32:41.150Z,4.23
2023-02-28T19:35:10.143Z,5.63
2023-02-28T19:37:39.963Z,3.67
2023-02-28T19:40:09.655Z,1.87
2023-02-28T19:42:38.038Z,6.40
2023-02-28T19:45:09.986Z,4.47
2023-02-28T19:47:41.151Z,5.30
2023-02-28T19:50:10.019Z,3.37
2023-02-28T19:52:38.429Z,1.67
2023-02-28T19:55:07.210Z,1.40
2023-02-28T19:57:35.622Z,2.60
2023-02-28T20:00:04.648Z,2.67
2023-02-28T20:02:32.976Z,5.17
2023-02-28T20:05:02.769Z,3.00
2023-02-28T20:07:31.982Z,4.27
2023-02-28T20:10:00.392Z,4.87
2023-02-28T20:12:28.699Z,6.17
2023-02-28T20:14:57.058Z,3.23
2023-02-28T20:17:25.787Z,2.73
2023-02-28T20:19:54.194Z,7.83
2023-02-28T20:22:23.926Z,3.50
2023-02-28T20:24:53.382Z,2.80
2023-02-28T20:27:21.716Z,3.30
2023-02-28T20:29:50.070Z,4.33
2023-02-28T20:32:18.463Z,3.40
2023-02-28T20:34:46.840Z,4.50
2023-02-28T20:37:15.198Z,4.40
2023-02-28T20:39:44.918Z,6.50
2023-02-28T20:42:13.268Z,2.30
2023-02-28T20:44:41.609Z,3.33
2023-02-28T20:47:09.945Z,2.73
2023-02-28T20:49:38.237Z,5.77
2023-02-28T20:52:06.651Z,4.07
2023-02-28T20:54:36.377Z,2.73
2023-02-28T20:57:06.502Z,3.47
2023-02-28T20:59:34.936Z,2.60
2023-02-28T21:02:03.414Z,8.90
2023-02-28T21:04:31.765Z,2.27
2023-02-28T21:07:00.073Z,2.30
2023-02-28T21:09:29.033Z,2.90
2023-02-28T21:11:57.403Z,4.17
2023-02-28T21:14:27.452Z,3.10
2023-02-28T21:16:55.826Z,2.03
2023-02-28T21:19:25.721Z,4.73
2023-02-28T21:21:56.642Z,3.10
2023-02-28T21:24:24.953Z,3.43
2023-02-28T21:26:54.035Z,1.10
2023-02-28T21:29:22.676Z,3.17
2023-02-28T21:31:53.521Z,3.90
2023-02-28T21:34:22.018Z,2.97
2023-02-28T21:36:50.389Z,2.53
2023-02-28T21:39:21.872Z,2.00
2023-02-28T21:41:50.214Z,2.60
2023-02-28T21:44:19.343Z,1.30
2023-02-28T21:46:48.344Z,2.03
2023-02-28T21:49:18.478Z,5.17
2023-02-28T21:51:46.968Z,2.87
2023-02-28T21:54:15.453Z,3.93
2023-02-28T21:56:44.198Z,3.30
2023-02-28T21:59:12.498Z,3.23
2023-02-28T22:01:43.402Z,2.80
2023-02-28T22:04:21.480Z,2.33
2023-02-28T22:06:52.398Z,1.57
2023-02-28T22:09:20.761Z,3.13
2023-02-28T22:11:49.299Z,3.50
2023-02-28T22:14:17.665Z,2.90
2023-02-28T22:16:55.014Z,2.57
2023-02-28T22:19:24.477Z,2.63
2023-02-28T22:21:54.750Z,1.37
2023-02-28T22:24:24.639Z,3.33
2023-02-28T22:26:53.605Z,2.37
2023-02-28T22:29:21.990Z,4.77
2023-02-28T22:31:50.439Z,3.93
2023-02-28T22:34:18.823Z,5.10
2023-02-28T22:36:47.162Z,2.00
2023-02-28T22:39:17.777Z,4.93
2023-02-28T22:41:46.127Z,3.03
2023-02-28T22:44:14.491Z,3.70
2023-02-28T22:46:42.878Z,5.43
2023-02-28T22:49:11.300Z,6.87
2023-02-28T22:51:39.619Z,5.90
2023-02-28T22:54:07.993Z,3.00
2023-02-28T22:56:37.892Z,3.40
2023-02-28T22:59:06.331Z,2.97
2023-02-28T23:01:35.907Z,3.90
2023-02-28T23:04:04.290Z,2.17
2023-02-28T23:06:34.049Z,1.30
2023-02-28T23:09:03.801Z,1.00
2023-02-28T23:11:32.921Z,7.40
2023-02-28T23:14:02.582Z,6.43
2023-02-28T23:16:32.240Z,4.27
2023-02-28T23:19:01.675Z,2.93
2023-02-28T23:21:30.555Z,3.90
2023-02-28T23:23:59.046Z,2.33
2023-02-28T23:26:27.475Z,5.53
2023-02-28T23:28:56.136Z,1.50
2023-02-28T23:31:26.200Z,1.43
2023-02-28T23:33:54.570Z,4.37
2023-02-28T23:36:23.083Z,2.80
2023-02-28T23:38:52.160Z,4.27
2023-02-28T23:41:21.214Z,4.10
2023-02-28T23:43:49.861Z,6.40
2023-02-28T23:46:18.356Z,3.20
2023-02-28T23:48:48.420Z,3.07
2023-02-28T23:51:17.772Z,2.63
2023-02-28T23:53:48.464Z,3.40
2023-02-28T23:56:17.515Z,2.60
2023-02-28T23:58:46.905Z,1.87
